createdAt,value
2018-04-26T00:02:07.868Z,100314.17
2018-04-26T00:04:33.679Z,100311.77
2018-04-26T00:06:59.512Z,100309.73
2018-04-26T00:09:25.310Z,100300.70
2018-04-26T00:11:51.115Z,100307.45
2018-04-26T00:14:16.917Z,100309.00
2018-04-26T00:16:42.687Z,100305.06
2018-04-26T00:19:08.505Z,100307.77
2018-04-26T00:21:34.297Z,100297.13
2018-04-26T00:24:00.080Z,100299.75
2018-04-26T00:26:25.882Z,100294.32
2018-04-26T00:28:51.682Z,100297.53
2018-04-26T00:31:17.482Z,100297.80
2018-04-26T00:33:43.282Z,100295.45
2018-04-26T00:36:09.093Z,100302.63
2018-04-26T00:38:34.897Z,100285.27
2018-04-26T00:41:00.714Z,100290.67
2018-04-26T00:43:26.486Z,100291.84
2018-04-26T00:45:52.470Z,100291.62
2018-04-26T00:48:18.262Z,100291.34
2018-04-26T00:50:44.049Z,100285.86
2018-04-26T00:53:09.837Z,100286.47
2018-04-26T00:55:35.653Z,100283.09
2018-04-26T00:58:01.447Z,100285.75
2018-04-26T01:00:27.358Z,100290.10
2018-04-26T01:02:53.137Z,100289.54
2018-04-26T01:05:18.921Z,100281.25
2018-04-26T01:07:44.734Z,100278.80
2018-04-26T01:10:10.527Z,100268.74
2018-04-26T01:12:36.323Z,100271.94
2018-04-26T01:15:02.190Z,100270.05
2018-04-26T01:17:28.000Z,100272.16
2018-04-26T01:19:53.782Z,100275.84
2018-04-26T01:22:19.616Z,100287.34
2018-04-26T01:24:45.427Z,100299.96
2018-04-26T01:27:11.213Z,100297.03
2018-04-26T01:29:37.016Z,100302.67
2018-04-26T01:32:02.808Z,100294.22
2018-04-26T01:34:28.610Z,100295.30
2018-04-26T01:37:06.992Z,100290.24
2018-04-26T01:39:32.782Z,100291.50
2018-04-26T01:41:59.386Z,100288.08
2018-04-26T01:44:25.193Z,100288.13
2018-04-26T01:46:50.978Z,100285.53
2018-04-26T01:49:16.769Z,100283.61
2018-04-26T01:51:42.574Z,100275.69
2018-04-26T01:54:08.373Z,100274.97
2018-04-26T01:56:34.147Z,100276.98
2018-04-26T01:59:00.000Z,100276.25
2018-04-26T02:01:25.754Z,100282.80
2018-04-26T02:03:51.545Z,100273.03
2018-04-26T02:06:17.437Z,100262.78
2018-04-26T02:08:43.223Z,100252.79
2018-04-26T02:11:09.029Z,100240.09
2018-04-26T02:13:34.925Z,100233.69
2018-04-26T02:16:00.728Z,100227.83
2018-04-26T02:18:26.506Z,100222.02
2018-04-26T02:20:52.461Z,100219.01
2018-04-26T02:23:18.325Z,100221.88
2018-04-26T02:25:44.117Z,100229.84
2018-04-26T02:28:09.930Z,100225.97
2018-04-26T02:30:35.705Z,100226.27
2018-04-26T02:33:01.493Z,100225.86
2018-04-26T02:35:27.324Z,100218.98
2018-04-26T02:37:53.110Z,100219.23
2018-04-26T02:40:18.918Z,100220.57
2018-04-26T02:42:44.729Z,100233.92
2018-04-26T02:45:10.534Z,100233.58
2018-04-26T02:47:36.341Z,100227.93
2018-04-26T02:50:02.184Z,100227.50
2018-04-26T02:52:27.961Z,100233.48
2018-04-26T02:54:53.770Z,100226.07
2018-04-26T02:57:19.587Z,100222.20
2018-04-26T02:59:45.388Z,100224.44
2018-04-26T03:02:11.162Z,100228.34
2018-04-26T03:04:36.974Z,100227.45
2018-04-26T03:07:02.758Z,100228.56
2018-04-26T03:09:28.553Z,100231.09
2018-04-26T03:11:54.362Z,100229.77
2018-04-26T03:14:20.186Z,100229.80
2018-04-26T03:16:45.970Z,100228.07
2018-04-26T03:19:11.757Z,100230.09
2018-04-26T03:21:37.552Z,100226.27
2018-04-26T03:24:03.352Z,100229.45
2018-04-26T03:26:29.162Z,100228.30
2018-04-26T03:28:54.969Z,100222.98
2018-04-26T03:31:20.746Z,100219.08
2018-04-26T03:33:46.550Z,100223.89
2018-04-26T03:36:12.335Z,100214.17
2018-04-26T03:38:38.127Z,100221.28
2018-04-26T03:41:03.922Z,100220.76
2018-04-26T03:43:29.701Z,100225.71
2018-04-26T03:45:55.503Z,100226.02
2018-04-26T03:48:21.281Z,100221.14
2018-04-26T03:50:47.068Z,100228.98
2018-04-26T03:53:12.853Z,100228.11
2018-04-26T03:55:38.670Z,100228.93
2018-04-26T03:58:04.441Z,100235.09
2018-04-26T04:00:42.684Z,100233.13
2018-04-26T04:03:20.929Z,100237.59
2018-04-26T04:08:50.609Z,100245.39
2018-04-26T04:11:16.395Z,100243.73
2018-04-26T04:13:42.216Z,100243.06
2018-04-26T04:16:07.973Z,100243.48
2018-04-26T04:18:33.769Z,100242.02
2018-04-26T04:20:59.576Z,100249.78
2018-04-26T04:23:25.370Z,100247.72
2018-04-26T04:25:51.165Z,100242.12
2018-04-26T04:28:16.962Z,100247.27
2018-04-26T04:30:42.749Z,100253.52
2018-04-26T04:33:08.594Z,100249.63
2018-04-26T04:35:34.498Z,100244.88
2018-04-26T04:38:00.294Z,100248.86
2018-04-26T04:40:26.102Z,100250.53
2018-04-26T04:42:51.922Z,100247.86
2018-04-26T04:45:17.759Z,100248.13
2018-04-26T04:47:43.506Z,100247.94
2018-04-26T04:50:09.388Z,100249.12
2018-04-26T04:52:35.186Z,100255.69
2018-04-26T04:55:00.973Z,100259.86
2018-04-26T04:57:26.797Z,100263.55
2018-04-26T04:59:52.578Z,100265.45
2018-04-26T05:02:18.365Z,100262.91
2018-04-26T05:04:44.173Z,100264.61
2018-04-26T05:07:09.955Z,100262.55
2018-04-26T05:09:35.754Z,100265.64
2018-04-26T05:12:01.568Z,100274.49
2018-04-26T05:14:27.349Z,100268.80
2018-04-26T05:16:53.150Z,100273.36
2018-04-26T05:19:18.958Z,100268.27
2018-04-26T05:21:44.728Z,100267.84
2018-04-26T05:24:10.513Z,100272.05
2018-04-26T05:29:08.974Z,100274.72
2018-04-26T05:31:34.766Z,100278.88
2018-04-26T05:34:00.549Z,100287.20
2018-04-26T05:36:26.336Z,100280.92
2018-04-26T05:38:52.134Z,100284.38
2018-04-26T05:41:17.910Z,100282.16
2018-04-26T05:43:43.881Z,100288.06
2018-04-26T05:46:09.676Z,100286.66
2018-04-26T05:48:35.457Z,100289.67
2018-04-26T05:51:01.450Z,100289.62
2018-04-26T05:53:27.435Z,100296.37
2018-04-26T05:55:53.275Z,100292.72
2018-04-26T05:58:19.050Z,100299.56
2018-04-26T06:00:44.852Z,100303.67
2018-04-26T06:03:10.749Z,100309.45
2018-04-26T06:05:36.530Z,100308.59
2018-04-26T06:08:02.313Z,100310.86
2018-04-26T06:10:28.091Z,100308.13
2018-04-26T06:12:53.879Z,100311.04
2018-04-26T06:15:19.679Z,100311.67
2018-04-26T06:17:45.520Z,100312.63
2018-04-26T06:20:11.309Z,100316.73
2018-04-26T06:22:37.098Z,100322.88
2018-04-26T06:25:03.097Z,100324.76
2018-04-26T06:27:28.805Z,100326.69
2018-04-26T06:29:54.587Z,100326.42
2018-04-26T06:32:20.376Z,100331.42
2018-04-26T06:34:46.172Z,100331.31
2018-04-26T06:37:11.958Z,100334.60
2018-04-26T06:39:37.786Z,100334.25
2018-04-26T06:42:03.608Z,100333.08
2018-04-26T06:44:29.425Z,100336.84
2018-04-26T06:46:55.442Z,100332.70
2018-04-26T06:49:21.226Z,100339.86
2018-04-26T06:51:47.314Z,100343.51
2018-04-26T06:54:13.086Z,100342.75
2018-04-26T06:56:38.865Z,100344.44
2018-04-26T06:59:04.701Z,100342.53
2018-04-26T07:01:30.481Z,100340.15
2018-04-26T07:03:56.285Z,100347.14
2018-04-26T07:06:22.279Z,100354.30
2018-04-26T07:08:48.075Z,100354.07
2018-04-26T07:11:13.856Z,100355.48
2018-04-26T07:13:39.666Z,100359.48
2018-04-26T07:16:05.444Z,100356.70
2018-04-26T07:18:31.223Z,100364.45
2018-04-26T07:20:57.021Z,100364.17
2018-04-26T07:23:22.855Z,100368.36
2018-04-26T07:25:48.674Z,100364.88
2018-04-26T07:28:14.585Z,100362.18
2018-04-26T07:30:40.381Z,100361.74
2018-04-26T07:33:06.166Z,100365.11
2018-04-26T07:35:31.997Z,100371.28
2018-04-26T07:37:57.778Z,100365.64
2018-04-26T07:40:23.661Z,100371.37
2018-04-26T07:42:49.539Z,100368.94
2018-04-26T07:45:16.486Z,100364.36
2018-04-26T07:47:43.680Z,100367.15
2018-04-26T07:50:09.735Z,100363.39
2018-04-26T07:52:35.582Z,100373.80
2018-04-26T07:55:01.423Z,100366.66
2018-04-26T07:57:27.525Z,100375.84
2018-04-26T07:59:53.343Z,100377.41
2018-04-26T08:02:19.137Z,100381.90
2018-04-26T08:04:44.935Z,100373.46
2018-04-26T08:07:10.775Z,100375.45
2018-04-26T08:09:36.581Z,100379.95
2018-04-26T08:12:02.393Z,100371.19
2018-04-26T08:14:28.525Z,100377.75
2018-04-26T08:16:54.402Z,100382.31
2018-04-26T08:19:20.203Z,100390.88
2018-04-26T08:21:46.018Z,100390.09
2018-04-26T08:24:18.827Z,100388.84
2018-04-26T08:26:44.624Z,100389.49
2018-04-26T08:29:11.281Z,100389.81
2018-04-26T08:31:37.086Z,100392.33
2018-04-26T08:34:03.048Z,100390.67
2018-04-26T08:36:29.503Z,100390.13
2018-04-26T08:38:55.346Z,100392.14
2018-04-26T08:41:21.159Z,100388.80
2018-04-26T08:43:47.016Z,100402.71
2018-04-26T08:46:12.822Z,100408.27
2018-04-26T08:48:38.706Z,100413.89
2018-04-26T08:51:04.529Z,100404.13
2018-04-26T08:53:30.353Z,100408.45
2018-04-26T08:55:56.160Z,100411.73
2018-04-26T08:58:21.943Z,100428.47
2018-04-26T09:00:47.888Z,100432.48
2018-04-26T09:03:13.741Z,100427.95
2018-04-26T09:05:39.541Z,100430.59
2018-04-26T09:08:05.707Z,100428.69
2018-04-26T09:10:31.544Z,100434.21
2018-04-26T09:12:57.356Z,100433.41
2018-04-26T09:15:23.158Z,100431.13
2018-04-26T09:17:48.961Z,100427.16
2018-04-26T09:20:14.779Z,100422.25
2018-04-26T09:22:40.598Z,100422.12
2018-04-26T09:25:06.410Z,100428.12
2018-04-26T09:27:32.309Z,100419.46
2018-04-26T09:29:58.149Z,100426.20
2018-04-26T09:32:23.942Z,100426.08
2018-04-26T09:34:49.753Z,100431.55
2018-04-26T09:37:15.766Z,100439.25
2018-04-26T09:39:42.090Z,100443.43
2018-04-26T09:42:07.878Z,100439.68
2018-04-26T09:44:33.751Z,100442.78
2018-04-26T09:46:59.561Z,100454.24
2018-04-26T09:49:25.371Z,100476.57
2018-04-26T09:51:51.384Z,100477.61
2018-04-26T09:54:17.197Z,100481.88
2018-04-26T09:56:43.024Z,100490.23
2018-04-26T09:59:08.850Z,100495.70
2018-04-26T10:01:34.663Z,100503.95
2018-04-26T10:04:06.480Z,100507.18
2018-04-26T10:06:32.308Z,100514.05
2018-04-26T10:08:58.453Z,100507.91
2018-04-26T10:11:24.240Z,100488.89
2018-04-26T10:13:50.070Z,100486.62
2018-04-26T10:16:15.852Z,100490.23
2018-04-26T10:18:41.661Z,100493.39
2018-04-26T10:21:07.539Z,100495.38
2018-04-26T10:23:33.649Z,100495.66
2018-04-26T10:26:00.708Z,100500.20
2018-04-26T10:28:27.469Z,100502.13
2018-04-26T10:30:53.268Z,100498.19
2018-04-26T10:33:19.160Z,100491.58
2018-04-26T10:35:44.990Z,100481.37
2018-04-26T10:38:10.825Z,100482.95
2018-04-26T10:40:37.189Z,100484.85
2018-04-26T10:43:03.180Z,100488.71
2018-04-26T10:45:29.011Z,100491.33
2018-04-26T10:47:54.841Z,100492.47
2018-04-26T10:50:20.665Z,100492.36
2018-04-26T10:52:46.444Z,100491.05
2018-04-26T10:55:12.455Z,100484.16
2018-04-26T10:57:38.277Z,100498.24
2018-04-26T11:00:04.150Z,100494.05
2018-04-26T11:02:29.988Z,100493.03
2018-04-26T11:04:56.637Z,100504.00
2018-04-26T11:07:22.432Z,100497.47
2018-04-26T11:09:55.789Z,100503.07
2018-04-26T11:12:21.673Z,100504.75
2018-04-26T11:14:48.873Z,100502.81
2018-04-26T11:17:14.780Z,100521.52
2018-04-26T11:19:41.559Z,100503.49
2018-04-26T11:22:07.957Z,100511.20
2018-04-26T11:24:35.671Z,100510.91
2018-04-26T11:27:01.718Z,100522.47
2018-04-26T11:29:27.548Z,100519.75
2018-04-26T11:31:53.345Z,100529.58
2018-04-26T11:34:19.198Z,100525.52
2018-04-26T11:36:45.023Z,100523.92
2018-04-26T11:39:10.845Z,100527.03
2018-04-26T11:41:36.663Z,100522.19
2018-04-26T11:44:02.847Z,100515.66
2018-04-26T11:46:28.681Z,100518.17
2018-04-26T11:48:54.533Z,100526.36
2018-04-26T11:51:20.470Z,100519.58
2018-04-26T11:53:46.954Z,100519.26
2018-04-26T11:56:12.954Z,100511.50
2018-04-26T11:58:39.057Z,100515.91
2018-04-26T12:01:04.918Z,100509.73
2018-04-26T12:03:30.723Z,100514.42
2018-04-26T12:05:58.287Z,100512.63
2018-04-26T12:08:24.475Z,100510.67
2018-04-26T12:10:50.997Z,100515.32
2018-04-26T12:13:16.833Z,100513.75
2018-04-26T12:15:42.653Z,100504.16
2018-04-26T12:18:09.104Z,100506.19
2018-04-26T12:20:34.948Z,100512.98
2018-04-26T12:23:00.742Z,100514.86
2018-04-26T12:25:26.581Z,100517.88
2018-04-26T12:27:52.392Z,100524.33
2018-04-26T12:30:18.277Z,100518.67
2018-04-26T12:32:50.810Z,100511.97
2018-04-26T12:35:20.903Z,100528.97
2018-04-26T12:37:51.369Z,100533.58
2018-04-26T12:40:17.272Z,100525.70
2018-04-26T12:42:43.057Z,100544.97
2018-04-26T12:45:08.937Z,100535.36
2018-04-26T12:47:34.775Z,100539.09
2018-04-26T12:50:00.563Z,100539.63
2018-04-26T12:52:27.181Z,100536.59
2018-04-26T12:54:53.001Z,100534.11
2018-04-26T12:57:18.805Z,100536.40
2018-04-26T12:59:44.589Z,100530.50
2018-04-26T13:02:10.413Z,100538.90
2018-04-26T13:04:36.185Z,100544.23
2018-04-26T13:07:02.005Z,100552.59
2018-04-26T13:09:27.868Z,100554.95
2018-04-26T13:11:53.734Z,100550.58
2018-04-26T13:14:19.547Z,100559.81
2018-04-26T13:16:45.337Z,100567.80
2018-04-26T13:19:11.838Z,100569.23
2018-04-26T13:21:37.779Z,100577.52
2018-04-26T13:24:03.618Z,100592.48
2018-04-26T13:26:29.437Z,100592.60
2018-04-26T13:28:55.429Z,100599.98
2018-04-26T13:31:21.965Z,100595.61
2018-04-26T13:33:47.745Z,100612.24
2018-04-26T13:36:13.849Z,100612.19
2018-04-26T13:38:39.698Z,100608.66
2018-04-26T13:41:05.483Z,100612.41
2018-04-26T13:43:32.913Z,100602.77
2018-04-26T13:45:58.721Z,100618.62
2018-04-26T13:48:24.610Z,100623.03
2018-04-26T13:50:50.413Z,100621.05
2018-04-26T13:53:16.205Z,100625.67
2018-04-26T13:55:41.996Z,100634.95
2018-04-26T13:58:07.781Z,100632.61
2018-04-26T14:00:33.590Z,100620.37
2018-04-26T14:02:59.380Z,100627.69
2018-04-26T14:05:25.186Z,100628.16
2018-04-26T14:07:51.332Z,100628.16
2018-04-26T14:10:18.001Z,100623.77
2018-04-26T14:12:44.448Z,100618.78
2018-04-26T14:15:10.661Z,100626.41
2018-04-26T14:17:43.553Z,100634.27
2018-04-26T14:20:09.352Z,100629.25
2018-04-26T14:22:35.166Z,100627.01
2018-04-26T14:25:00.986Z,100620.89
2018-04-26T14:27:26.822Z,100618.52
2018-04-26T14:29:52.645Z,100623.63
2018-04-26T14:32:18.469Z,100624.56
2018-04-26T14:34:44.299Z,100625.13
2018-04-26T14:37:10.196Z,100627.25
2018-04-26T14:39:35.932Z,100630.34
2018-04-26T14:42:01.728Z,100631.58
2018-04-26T14:44:27.613Z,100635.70
2018-04-26T14:46:53.393Z,100634.94
2018-04-26T14:49:19.185Z,100632.42
2018-04-26T14:51:44.980Z,100625.17
2018-04-26T14:54:10.752Z,100633.98
2018-04-26T14:56:36.543Z,100635.58
2018-04-26T14:59:02.663Z,100634.23
2018-04-26T15:01:28.452Z,100640.79
2018-04-26T15:03:54.234Z,100622.59
2018-04-26T15:06:20.037Z,100637.16
2018-04-26T15:08:45.840Z,100640.96
2018-04-26T15:11:11.646Z,100636.53
2018-04-26T15:13:37.433Z,100623.37
2018-04-26T15:16:03.228Z,100627.20
2018-04-26T15:18:29.009Z,100623.84
2018-04-26T15:20:55.129Z,100630.85
2018-04-26T15:23:20.917Z,100632.86
2018-04-26T15:25:46.717Z,100633.50
2018-04-26T15:28:12.506Z,100634.99
2018-04-26T15:30:38.283Z,100621.95
2018-04-26T15:33:04.057Z,100621.66
2018-04-26T15:35:30.157Z,100616.91
2018-04-26T15:37:55.959Z,100615.44
2018-04-26T15:40:21.741Z,100619.90
2018-04-26T15:42:47.536Z,100629.27
2018-04-26T15:45:13.328Z,100625.89
2018-04-26T15:47:39.221Z,100617.74
2018-04-26T15:50:05.102Z,100634.02
2018-04-26T15:52:49.410Z,100612.28
2018-04-26T15:55:27.646Z,100628.34
2018-04-26T16:01:13.397Z,100630.84
2018-04-26T16:03:51.575Z,100640.76
2018-04-26T16:06:30.629Z,100631.72
2018-04-26T16:09:08.880Z,100644.04
2018-04-26T16:11:47.277Z,100648.52
2018-04-26T16:27:50.534Z,100673.45
2018-04-26T16:30:28.635Z,100661.58
2018-04-26T16:33:07.002Z,100671.16
2018-04-26T16:35:45.164Z,100673.40
2018-04-26T16:38:23.329Z,100676.73
2018-04-26T16:40:49.116Z,100675.23
2018-04-26T16:43:14.885Z,100669.83
2018-04-26T16:45:40.671Z,100672.77
2018-04-26T16:48:06.669Z,100687.43
2018-04-26T16:50:32.479Z,100678.05
2018-04-26T16:53:02.806Z,100688.78
2018-04-26T16:55:28.721Z,100687.30
2018-04-26T16:57:54.515Z,100690.56
2018-04-26T17:00:20.310Z,100691.19
2018-04-26T17:02:46.125Z,100691.11
2018-04-26T17:05:11.911Z,100690.70
2018-04-26T17:07:37.691Z,100681.08
2018-04-26T17:10:03.738Z,100690.56
2018-04-26T17:12:29.522Z,100668.95
2018-04-26T17:14:55.305Z,100696.38
2018-04-26T17:17:21.085Z,100696.12
2018-04-26T17:19:46.870Z,100699.45
2018-04-26T17:22:12.681Z,100718.70
2018-04-26T17:24:38.461Z,100700.72
2018-04-26T17:27:04.241Z,100704.56
2018-04-26T17:29:30.193Z,100715.42
2018-04-26T17:31:55.984Z,100717.34
2018-04-26T17:34:21.774Z,100719.19
2018-04-26T17:36:47.552Z,100723.73
2018-04-26T17:39:13.342Z,100732.27
2018-04-26T17:41:39.156Z,100717.77
2018-04-26T17:44:04.928Z,100732.52
2018-04-26T17:46:30.738Z,100725.60
2018-04-26T17:48:56.533Z,100735.83
2018-04-26T17:51:22.309Z,100718.23
2018-04-26T17:53:48.092Z,100729.78
2018-04-26T17:56:13.889Z,100740.11
2018-04-26T17:58:39.672Z,100745.45
2018-04-26T18:01:05.469Z,100741.28
2018-04-26T18:03:31.710Z,100748.14
2018-04-26T18:05:57.573Z,100746.89
2018-04-26T18:08:24.407Z,100758.02
2018-04-26T18:10:50.207Z,100767.59
2018-04-26T18:13:16.082Z,100768.84
2018-04-26T18:15:42.188Z,100775.87
2018-04-26T18:18:08.087Z,100774.37
2018-04-26T18:20:33.877Z,100779.59
2018-04-26T18:22:59.764Z,100786.08
2018-04-26T18:25:25.585Z,100784.44
2018-04-26T18:27:51.398Z,100781.86
2018-04-26T18:30:17.182Z,100769.91
2018-04-26T18:32:42.976Z,100785.89
2018-04-26T18:35:08.774Z,100788.06
2018-04-26T18:37:34.602Z,100800.19
2018-04-26T18:40:00.569Z,100794.75
2018-04-26T18:42:26.392Z,100797.91
2018-04-26T18:44:52.194Z,100799.16
2018-04-26T18:47:18.000Z,100809.81
2018-04-26T18:49:43.793Z,100808.98
2018-04-26T18:52:09.583Z,100812.09
2018-04-26T18:54:35.395Z,100815.53
2018-04-26T18:57:01.223Z,100815.20
2018-04-26T18:59:27.027Z,100824.39
2018-04-26T19:01:52.859Z,100821.27
2018-04-26T19:04:18.670Z,100825.76
2018-04-26T19:06:44.463Z,100817.45
2018-04-26T19:09:10.262Z,100834.13
2018-04-26T19:11:36.107Z,100831.84
2018-04-26T19:14:01.961Z,100830.34
2018-04-26T19:16:27.762Z,100830.48
2018-04-26T19:18:53.568Z,100833.11
2018-04-26T19:21:19.380Z,100828.79
2018-04-26T19:23:45.972Z,100837.95
2018-04-26T19:26:12.026Z,100843.45
2018-04-26T19:28:37.817Z,100849.47
2018-04-26T19:31:03.867Z,100844.19
2018-04-26T19:33:29.661Z,100852.39
2018-04-26T19:35:55.623Z,100844.30
2018-04-26T19:38:21.418Z,100850.33
2018-04-26T19:40:47.213Z,100839.39
2018-04-26T19:43:13.064Z,100843.02
2018-04-26T19:45:38.886Z,100840.34
2018-04-26T19:48:04.715Z,100850.23
2018-04-26T19:50:30.548Z,100846.09
2018-04-26T19:52:56.344Z,100826.77
2018-04-26T19:55:22.178Z,100846.64
2018-04-26T19:57:48.002Z,100838.36
2018-04-26T20:00:13.800Z,100842.30
2018-04-26T20:02:39.600Z,100845.11
2018-04-26T20:05:05.560Z,100842.11
2018-04-26T20:07:31.349Z,100841.06
2018-04-26T20:09:57.999Z,100840.77
2018-04-26T20:12:23.785Z,100834.65
2018-04-26T20:14:49.593Z,100838.62
2018-04-26T20:17:15.404Z,100836.28
2018-04-26T20:19:41.203Z,100827.20
2018-04-26T20:22:06.981Z,100826.70
2018-04-26T20:24:32.766Z,100827.06
2018-04-26T20:26:58.541Z,100824.70
2018-04-26T20:29:24.337Z,100829.66
2018-04-26T20:31:50.133Z,100833.33
2018-04-26T20:34:15.958Z,100832.05
2018-04-26T20:36:41.748Z,100831.80
2018-04-26T20:39:07.560Z,100831.97
2018-04-26T20:41:37.408Z,100836.69
2018-04-26T20:44:03.093Z,100836.36
2018-04-26T20:46:28.890Z,100839.98
2018-04-26T20:48:54.681Z,100836.05
2018-04-26T20:51:20.492Z,100842.67
2018-04-26T20:53:46.276Z,100837.06
2018-04-26T20:56:12.079Z,100840.48
2018-04-26T20:58:38.131Z,100832.89
2018-04-26T21:01:03.909Z,100837.07
2018-04-26T21:03:29.681Z,100832.61
2018-04-26T21:05:55.477Z,100828.62
2018-04-26T21:08:21.445Z,100829.92
2018-04-26T21:10:47.231Z,100831.12
2018-04-26T21:13:13.256Z,100828.04
2018-04-26T21:15:39.033Z,100826.84
2018-04-26T21:18:04.836Z,100829.54
2018-04-26T21:20:30.673Z,100827.19
2018-04-26T21:22:56.456Z,100828.72
2018-04-26T21:25:22.230Z,100826.85
2018-04-26T21:27:48.022Z,100825.69
2018-04-26T21:30:20.929Z,100824.06
2018-04-26T21:32:46.697Z,100821.86
2018-04-26T21:35:12.505Z,100821.80
2018-04-26T21:37:38.299Z,100820.55
2018-04-26T21:40:04.125Z,100825.69
2018-04-26T21:42:29.911Z,100830.69
2018-04-26T21:44:55.693Z,100829.82
2018-04-26T21:47:21.517Z,100828.62
2018-04-26T21:49:53.521Z,100836.33
2018-04-26T21:52:25.405Z,100834.73
2018-04-26T21:54:57.382Z,100839.28
2018-04-26T21:57:29.277Z,100838.39
2018-04-26T22:00:02.067Z,100842.94
2018-04-26T22:02:27.797Z,100836.27
2018-04-26T22:04:56.672Z,100837.81
2018-04-26T22:07:22.461Z,100839.34
2018-04-26T22:09:48.237Z,100842.71
2018-04-26T22:12:14.061Z,100844.48
2018-04-26T22:14:39.846Z,100842.12
2018-04-26T22:17:05.639Z,100839.82
2018-04-26T22:19:31.440Z,100839.25
2018-04-26T22:21:57.214Z,100847.27
2018-04-26T22:24:23.041Z,100848.36
2018-04-26T22:26:48.829Z,100849.15
2018-04-26T22:29:14.651Z,100852.50
2018-04-26T22:31:40.434Z,100851.48
2018-04-26T22:34:06.253Z,100852.02
2018-04-26T22:36:32.050Z,100855.19
2018-04-26T22:38:57.831Z,100855.13
2018-04-26T22:41:23.638Z,100852.97
2018-04-26T22:43:49.416Z,100852.39
2018-04-26T22:46:15.213Z,100854.66
2018-04-26T22:48:41.339Z,100853.00
2018-04-26T22:51:07.151Z,100851.95
2018-04-26T22:53:32.946Z,100846.95
2018-04-26T22:55:58.741Z,100849.20
2018-04-26T22:58:24.526Z,100840.44
2018-04-26T23:00:50.349Z,100828.86
2018-04-26T23:03:16.140Z,100822.70
2018-04-26T23:05:41.924Z,100835.67
2018-04-26T23:08:07.727Z,100832.41
2018-04-26T23:10:33.588Z,100831.65
2018-04-26T23:12:59.386Z,100831.59
2018-04-26T23:15:25.193Z,100833.07
2018-04-26T23:17:51.001Z,100826.20
2018-04-26T23:20:16.808Z,100829.23
2018-04-26T23:22:42.612Z,100828.81
2018-04-26T23:25:08.413Z,100827.08
2018-04-26T23:27:34.199Z,100826.72
2018-04-26T23:29:59.983Z,100822.79
2018-04-26T23:32:25.783Z,100819.48
2018-04-26T23:34:51.570Z,100824.07
2018-04-26T23:37:17.700Z,100832.18
2018-04-26T23:39:43.473Z,100832.42
2018-04-26T23:42:09.246Z,100825.64
2018-04-26T23:44:35.030Z,100826.38
2018-04-26T23:47:00.855Z,100824.40
2018-04-26T23:49:26.644Z,100819.84
2018-04-26T23:51:52.437Z,100818.21
2018-04-26T23:54:18.225Z,100815.66
2018-04-26T23:56:44.053Z,100810.64
2018-04-26T23:59:09.825Z,100810.16
